createdAt,value
2018-09-23T00:01:27.855Z,11.40
2018-09-23T00:03:56.330Z,11.40
2018-09-23T00:06:24.819Z,11.40
2018-09-23T00:08:53.285Z,11.40
2018-09-23T00:11:22.074Z,11.40
2018-09-23T00:13:50.474Z,11.40
2018-09-23T00:16:18.879Z,11.40
2018-09-23T00:18:47.315Z,11.40
2018-09-23T00:21:15.735Z,11.40
2018-09-23T00:23:44.175Z,11.40
2018-09-23T00:26:12.603Z,11.40
2018-09-23T00:28:41.067Z,11.40
2018-09-23T00:31:09.515Z,11.40
2018-09-23T00:33:37.919Z,11.30
2018-09-23T00:36:06.334Z,11.30
2018-09-23T00:38:34.742Z,11.30
2018-09-23T00:41:03.198Z,11.40
2018-09-23T00:43:31.599Z,11.40
2018-09-23T00:46:00.027Z,11.40
2018-09-23T00:48:30.774Z,11.40
2018-09-23T00:50:59.210Z,11.40
2018-09-23T00:53:27.615Z,11.40
2018-09-23T00:55:56.041Z,11.40
2018-09-23T00:58:24.433Z,11.40
2018-09-23T01:00:52.858Z,11.40
2018-09-23T01:03:21.313Z,11.40
2018-09-23T01:05:49.772Z,11.40
2018-09-23T01:08:18.165Z,11.40
2018-09-23T01:10:46.590Z,11.40
2018-09-23T01:13:15.026Z,11.40
2018-09-23T01:15:43.442Z,11.40
2018-09-23T01:18:11.854Z,11.40
2018-09-23T01:20:40.682Z,11.40
2018-09-23T01:23:09.093Z,11.40
2018-09-23T01:25:37.603Z,11.40
2018-09-23T01:28:06.427Z,11.40
2018-09-23T01:30:34.846Z,11.40
2018-09-23T01:33:03.275Z,11.40
2018-09-23T01:35:31.723Z,11.40
2018-09-23T01:38:00.174Z,11.40
2018-09-23T01:40:28.659Z,11.40
2018-09-23T01:42:57.144Z,11.30
2018-09-23T01:45:25.562Z,11.30
2018-09-23T01:47:54.007Z,11.40
2018-09-23T01:50:22.407Z,11.40
2018-09-23T01:52:50.860Z,11.40
2018-09-23T01:55:19.510Z,11.40
2018-09-23T01:57:47.940Z,11.40
2018-09-23T02:00:16.347Z,11.40
2018-09-23T02:02:44.795Z,11.40
2018-09-23T02:05:13.273Z,11.40
2018-09-23T02:07:41.773Z,11.40
2018-09-23T02:10:10.226Z,11.40
2018-09-23T02:12:38.674Z,11.40
2018-09-23T02:15:07.231Z,11.40
2018-09-23T02:17:35.717Z,11.40
2018-09-23T02:20:04.499Z,11.40
2018-09-23T02:22:32.931Z,11.40
2018-09-23T02:25:01.358Z,11.40
2018-09-23T02:27:29.802Z,11.40
2018-09-23T02:29:58.227Z,11.40
2018-09-23T02:32:26.666Z,11.40
2018-09-23T02:34:55.087Z,11.40
2018-09-23T02:37:23.542Z,11.40
2018-09-23T02:39:51.975Z,11.40
2018-09-23T02:42:20.387Z,11.30
2018-09-23T02:44:48.848Z,11.30
2018-09-23T02:47:17.264Z,11.30
2018-09-23T02:49:45.899Z,11.30
2018-09-23T02:52:14.295Z,11.30
2018-09-23T02:54:43.006Z,11.30
2018-09-23T02:57:11.412Z,11.40
2018-09-23T02:59:39.843Z,11.30
2018-09-23T03:02:08.242Z,11.30
2018-09-23T03:04:36.668Z,11.30
2018-09-23T03:07:05.066Z,11.30
2018-09-23T03:09:33.496Z,11.30
2018-09-23T03:12:02.304Z,11.30
2018-09-23T03:14:30.748Z,11.30
2018-09-23T03:16:59.157Z,11.30
2018-09-23T03:19:27.699Z,11.30
2018-09-23T03:21:56.124Z,11.40
2018-09-23T03:24:24.550Z,11.30
2018-09-23T03:26:52.970Z,11.30
2018-09-23T03:29:21.382Z,11.40
2018-09-23T03:31:49.814Z,11.30
2018-09-23T03:34:18.262Z,11.30
2018-09-23T03:36:46.678Z,11.30
2018-09-23T03:39:15.067Z,11.30
2018-09-23T03:41:43.495Z,11.40
2018-09-23T03:44:11.914Z,11.30
2018-09-23T03:46:40.717Z,11.30
2018-09-23T03:49:09.166Z,11.30
2018-09-23T03:51:37.650Z,11.30
2018-09-23T03:54:06.474Z,11.30
2018-09-23T03:56:34.895Z,11.30
2018-09-23T03:59:03.307Z,11.30
2018-09-23T04:01:31.755Z,11.20
2018-09-23T04:04:00.186Z,11.20
2018-09-23T04:06:28.609Z,11.20
2018-09-23T04:08:57.019Z,11.20
2018-09-23T04:11:25.783Z,11.20
2018-09-23T04:13:55.188Z,11.20
2018-09-23T04:16:23.668Z,11.30
2018-09-23T04:18:52.426Z,11.20
2018-09-23T04:21:20.846Z,11.20
2018-09-23T04:23:49.258Z,11.10
2018-09-23T04:26:17.714Z,11.10
2018-09-23T04:28:46.165Z,11.10
2018-09-23T04:31:14.588Z,11.10
2018-09-23T04:33:43.021Z,11.20
2018-09-23T04:36:11.476Z,11.20
2018-09-23T04:38:39.895Z,11.20
2018-09-23T04:41:08.316Z,11.20
2018-09-23T04:43:36.774Z,11.20
2018-09-23T04:46:05.542Z,11.10
2018-09-23T04:48:33.963Z,11.10
2018-09-23T04:51:02.368Z,11.10
2018-09-23T04:53:30.786Z,11.10
2018-09-23T04:55:59.191Z,11.20
2018-09-23T04:58:27.615Z,11.10
2018-09-23T05:00:56.015Z,11.20
2018-09-23T05:03:24.442Z,11.20
2018-09-23T05:05:52.838Z,11.20
2018-09-23T05:08:21.264Z,11.10
2018-09-23T05:10:49.702Z,11.20
2018-09-23T05:13:18.180Z,11.20
2018-09-23T05:15:46.618Z,11.20
2018-09-23T05:18:15.072Z,11.10
2018-09-23T05:20:43.496Z,11.10
2018-09-23T05:23:11.954Z,11.10
2018-09-23T05:25:40.361Z,11.10
2018-09-23T05:28:08.843Z,11.10
2018-09-23T05:30:37.271Z,11.10
2018-09-23T05:33:05.739Z,11.20
2018-09-23T05:35:34.238Z,11.20
2018-09-23T05:38:02.663Z,11.10
2018-09-23T05:40:31.112Z,11.20
2018-09-23T05:42:59.594Z,11.20
2018-09-23T05:45:28.050Z,11.20
2018-09-23T05:47:56.519Z,11.20
2018-09-23T05:50:24.947Z,11.20
2018-09-23T05:52:53.399Z,11.20
2018-09-23T05:55:21.827Z,11.20
2018-09-23T05:57:50.242Z,11.20
2018-09-23T06:00:19.095Z,11.20
2018-09-23T06:02:47.498Z,11.30
2018-09-23T06:05:15.930Z,11.30
2018-09-23T06:07:44.339Z,11.40
2018-09-23T06:10:12.799Z,11.40
2018-09-23T06:12:41.247Z,11.40
2018-09-23T06:15:09.675Z,11.40
2018-09-23T06:17:38.292Z,11.40
2018-09-23T06:20:06.758Z,11.40
2018-09-23T06:22:35.163Z,11.40
2018-09-23T06:25:03.984Z,11.40
2018-09-23T06:27:32.581Z,11.40
2018-09-23T06:30:01.034Z,11.40
2018-09-23T06:32:29.446Z,11.40
2018-09-23T06:34:57.864Z,11.40
2018-09-23T06:37:26.265Z,11.40
2018-09-23T06:39:54.695Z,11.50
2018-09-23T06:42:23.169Z,11.50
2018-09-23T06:44:51.614Z,11.50
2018-09-23T06:47:20.058Z,11.50
2018-09-23T06:49:48.448Z,11.60
2018-09-23T06:52:16.899Z,11.50
2018-09-23T06:54:45.326Z,11.60
2018-09-23T06:57:13.812Z,11.60
2018-09-23T06:59:42.481Z,11.60
2018-09-23T07:02:10.886Z,11.60
2018-09-23T07:04:39.367Z,11.60
2018-09-23T07:07:07.925Z,11.60
2018-09-23T07:09:36.367Z,11.60
2018-09-23T07:12:04.793Z,11.70
2018-09-23T07:14:33.303Z,11.70
2018-09-23T07:17:02.089Z,11.70
2018-09-23T07:19:30.497Z,11.80
2018-09-23T07:21:59.042Z,11.80
2018-09-23T07:24:27.451Z,11.80
2018-09-23T07:26:55.890Z,11.80
2018-09-23T07:29:24.314Z,11.80
2018-09-23T07:31:52.754Z,11.80
2018-09-23T07:34:21.212Z,11.80
2018-09-23T07:36:50.079Z,11.80
2018-09-23T07:39:18.643Z,11.90
2018-09-23T07:41:47.067Z,11.90
2018-09-23T07:44:15.486Z,11.90
2018-09-23T07:46:43.953Z,11.90
2018-09-23T07:49:12.391Z,12.00
2018-09-23T07:51:40.819Z,12.00
2018-09-23T07:54:09.239Z,12.10
2018-09-23T07:56:38.015Z,12.10
2018-09-23T07:59:06.610Z,12.10
2018-09-23T08:01:35.037Z,12.10
2018-09-23T08:04:03.665Z,12.10
2018-09-23T08:06:32.078Z,12.10
2018-09-23T08:09:00.551Z,12.10
2018-09-23T08:11:28.962Z,12.10
2018-09-23T08:13:57.615Z,12.10
2018-09-23T08:16:26.039Z,12.20
2018-09-23T08:18:54.486Z,12.20
2018-09-23T08:21:22.962Z,12.30
2018-09-23T08:23:51.607Z,12.30
2018-09-23T08:26:20.074Z,12.30
2018-09-23T08:28:48.683Z,12.30
2018-09-23T08:31:17.466Z,12.40
2018-09-23T08:33:45.945Z,12.40
2018-09-23T08:36:14.399Z,12.50
2018-09-23T08:38:43.114Z,12.60
2018-09-23T08:41:11.597Z,12.70
2018-09-23T08:43:40.026Z,12.80
2018-09-23T08:46:08.828Z,12.80
2018-09-23T08:48:37.249Z,12.80
2018-09-23T08:51:06.062Z,12.80
2018-09-23T08:53:34.634Z,12.70
2018-09-23T08:56:03.325Z,12.60
2018-09-23T08:58:31.903Z,12.50
2018-09-23T09:01:00.374Z,12.40
2018-09-23T09:03:28.788Z,12.30
2018-09-23T09:05:57.446Z,12.40
2018-09-23T09:08:25.878Z,12.40
2018-09-23T09:10:54.312Z,12.50
2018-09-23T09:13:22.735Z,12.50
2018-09-23T09:15:51.179Z,12.50
2018-09-23T09:18:19.732Z,12.50
2018-09-23T09:20:48.342Z,12.50
2018-09-23T09:23:16.759Z,12.60
2018-09-23T09:25:45.187Z,12.60
2018-09-23T09:28:13.599Z,12.60
2018-09-23T09:30:42.005Z,12.60
2018-09-23T09:33:10.438Z,12.70
2018-09-23T09:35:38.886Z,12.70
2018-09-23T09:38:07.330Z,12.70
2018-09-23T09:40:35.766Z,12.80
2018-09-23T09:43:04.210Z,12.80
2018-09-23T09:45:32.639Z,12.80
2018-09-23T09:48:01.104Z,12.80
2018-09-23T09:50:29.730Z,12.80
2018-09-23T09:52:58.171Z,12.70
2018-09-23T09:55:26.705Z,12.70
2018-09-23T09:57:55.266Z,12.70
2018-09-23T10:00:29.214Z,12.60
2018-09-23T10:02:57.866Z,12.50
2018-09-23T10:05:26.271Z,12.50
2018-09-23T10:07:54.710Z,12.50
2018-09-23T10:10:23.146Z,12.50
2018-09-23T10:12:51.642Z,12.50
2018-09-23T10:15:20.056Z,12.40
2018-09-23T10:17:48.451Z,12.30
2018-09-23T10:20:16.866Z,12.30
2018-09-23T10:22:45.487Z,12.30
2018-09-23T10:25:14.039Z,12.20
2018-09-23T10:27:42.464Z,12.20
2018-09-23T10:30:11.207Z,12.10
2018-09-23T10:32:39.707Z,12.10
2018-09-23T10:35:08.517Z,12.00
2018-09-23T10:37:38.650Z,12.00
2018-09-23T10:40:07.095Z,11.80
2018-09-23T10:42:35.500Z,11.90
2018-09-23T10:45:04.321Z,11.80
2018-09-23T10:47:32.782Z,11.70
2018-09-23T10:50:01.247Z,11.80
2018-09-23T10:52:29.879Z,11.70
2018-09-23T10:54:58.331Z,11.60
2018-09-23T10:57:26.743Z,11.60
2018-09-23T10:59:55.175Z,11.50
2018-09-23T11:02:23.590Z,11.50
2018-09-23T11:04:52.031Z,11.50
2018-09-23T11:07:20.465Z,11.60
2018-09-23T11:09:49.360Z,11.60
2018-09-23T11:12:17.963Z,11.60
2018-09-23T11:14:46.607Z,11.70
2018-09-23T11:17:15.079Z,11.70
2018-09-23T11:19:43.535Z,11.70
2018-09-23T11:22:11.954Z,11.70
2018-09-23T11:24:40.429Z,11.60
2018-09-23T11:27:09.031Z,11.60
2018-09-23T11:29:37.459Z,11.50
2018-09-23T11:32:06.366Z,11.50
2018-09-23T11:34:34.783Z,11.50
2018-09-23T11:37:03.552Z,11.60
2018-09-23T11:39:32.010Z,11.60
2018-09-23T11:42:00.544Z,11.60
2018-09-23T11:44:29.166Z,11.50
2018-09-23T11:46:57.594Z,11.60
2018-09-23T11:49:26.020Z,11.60
2018-09-23T11:51:54.472Z,11.60
2018-09-23T11:54:22.870Z,11.60
2018-09-23T11:56:51.298Z,11.60
2018-09-23T11:59:19.740Z,11.50
2018-09-23T12:01:49.138Z,11.40
2018-09-23T12:04:17.647Z,11.40
2018-09-23T12:06:47.362Z,11.40
2018-09-23T12:09:16.144Z,11.40
2018-09-23T12:11:44.559Z,11.40
2018-09-23T12:14:13.164Z,11.40
2018-09-23T12:16:41.597Z,11.30
2018-09-23T12:19:10.098Z,11.30
2018-09-23T12:21:38.531Z,11.30
2018-09-23T12:24:07.350Z,11.20
2018-09-23T12:26:35.786Z,11.20
2018-09-23T12:29:04.274Z,11.10
2018-09-23T12:31:32.911Z,11.00
2018-09-23T12:34:01.327Z,11.00
2018-09-23T12:36:29.746Z,11.00
2018-09-23T12:38:58.227Z,11.00
2018-09-23T12:41:26.651Z,11.10
2018-09-23T12:43:55.108Z,11.10
2018-09-23T12:46:23.543Z,11.00
2018-09-23T12:48:51.975Z,11.10
2018-09-23T12:51:20.470Z,11.00
2018-09-23T12:53:48.900Z,11.10
2018-09-23T12:56:17.337Z,11.00
2018-09-23T12:58:45.756Z,11.00
2018-09-23T13:01:14.168Z,11.00
2018-09-23T13:03:42.600Z,10.90
2018-09-23T13:06:11.046Z,10.90
2018-09-23T13:08:39.687Z,11.00
2018-09-23T13:11:08.189Z,11.00
2018-09-23T13:13:36.628Z,11.00
2018-09-23T13:16:05.126Z,11.00
2018-09-23T13:18:33.605Z,11.00
2018-09-23T13:21:02.107Z,11.00
2018-09-23T13:23:30.526Z,11.10
2018-09-23T13:25:59.190Z,11.10
2018-09-23T13:28:27.618Z,11.10
2018-09-23T13:30:56.050Z,11.00
2018-09-23T13:33:24.493Z,11.00
2018-09-23T13:35:52.909Z,11.00
2018-09-23T13:38:21.393Z,11.00
2018-09-23T13:40:49.834Z,11.10
2018-09-23T13:43:18.281Z,11.00
2018-09-23T13:45:46.707Z,11.00
2018-09-23T13:48:15.198Z,11.00
2018-09-23T13:50:43.668Z,10.90
2018-09-23T13:53:12.152Z,11.00
2018-09-23T13:55:40.591Z,10.90
2018-09-23T13:58:09.055Z,10.90
2018-09-23T14:00:37.566Z,11.00
2018-09-23T14:03:06.069Z,10.90
2018-09-23T14:05:34.531Z,10.80
2018-09-23T14:08:03.126Z,10.80
2018-09-23T14:10:31.551Z,10.80
2018-09-23T14:13:00.099Z,10.70
2018-09-23T14:15:28.565Z,10.70
2018-09-23T14:17:57.082Z,10.60
2018-09-23T14:20:25.589Z,10.60
2018-09-23T14:22:54.262Z,10.50
2018-09-23T14:25:22.726Z,10.60
2018-09-23T14:27:51.259Z,10.70
2018-09-23T14:30:19.860Z,10.60
2018-09-23T14:32:48.696Z,10.60
2018-09-23T14:35:17.406Z,10.60
2018-09-23T14:37:46.051Z,10.60
2018-09-23T14:40:14.685Z,10.60
2018-09-23T14:42:44.038Z,10.60
2018-09-23T14:45:12.782Z,10.60
2018-09-23T14:47:41.191Z,10.60
2018-09-23T14:50:09.711Z,10.60
2018-09-23T14:56:09.299Z,10.50
2018-09-23T14:58:38.026Z,10.50
2018-09-23T15:01:06.617Z,10.40
2018-09-23T15:03:35.055Z,10.30
2018-09-23T15:06:03.623Z,10.30
2018-09-23T15:08:32.123Z,10.20
2018-09-23T15:11:00.606Z,10.20
2018-09-23T15:13:29.028Z,10.20
2018-09-23T15:15:57.532Z,10.20
2018-09-23T15:18:25.943Z,10.20
2018-09-23T15:20:55.295Z,10.10
2018-09-23T15:23:23.711Z,10.10
2018-09-23T15:25:52.136Z,10.20
2018-09-23T15:28:20.562Z,10.20
2018-09-23T15:30:49.057Z,10.20
2018-09-23T15:33:17.841Z,10.20
2018-09-23T15:35:46.289Z,10.20
2018-09-23T15:38:14.693Z,10.20
2018-09-23T15:40:43.163Z,10.10
2018-09-23T15:43:11.586Z,10.10
2018-09-23T15:45:39.985Z,10.10
2018-09-23T15:48:09.794Z,10.10
2018-09-23T15:50:39.066Z,10.00
2018-09-23T15:53:07.526Z,10.00
2018-09-23T15:55:36.226Z,10.00
2018-09-23T15:58:04.882Z,9.90
2018-09-23T16:00:33.318Z,9.90
2018-09-23T16:03:01.826Z,9.90
2018-09-23T16:05:30.284Z,9.90
2018-09-23T16:07:58.922Z,9.90
2018-09-23T16:10:27.314Z,9.90
2018-09-23T16:12:55.835Z,9.90
2018-09-23T16:15:24.259Z,9.90
2018-09-23T16:17:52.686Z,9.90
2018-09-23T16:20:21.442Z,9.90
2018-09-23T16:22:49.861Z,9.90
2018-09-23T16:25:18.294Z,9.90
2018-09-23T16:27:46.699Z,9.90
2018-09-23T16:30:15.151Z,10.00
2018-09-23T16:32:43.563Z,10.00
2018-09-23T16:35:12.386Z,10.00
2018-09-23T16:37:40.854Z,10.00
2018-09-23T16:40:09.773Z,10.00
2018-09-23T16:42:38.234Z,10.00
2018-09-23T16:45:06.685Z,9.90
2018-09-23T16:47:35.167Z,10.00
2018-09-23T16:50:04.438Z,10.00
2018-09-23T16:52:32.845Z,10.00
2018-09-23T16:55:01.305Z,9.90
2018-09-23T16:57:29.883Z,9.90
2018-09-23T16:59:58.342Z,9.90
2018-09-23T17:02:26.762Z,9.90
2018-09-23T17:04:55.194Z,9.90
2018-09-23T17:07:23.890Z,9.90
2018-09-23T17:09:52.437Z,9.90
2018-09-23T17:12:20.890Z,9.90
2018-09-23T17:14:49.389Z,9.90
2018-09-23T17:17:17.787Z,9.90
2018-09-23T17:19:46.226Z,9.90
2018-09-23T17:22:14.991Z,9.90
2018-09-23T17:24:43.438Z,9.90
2018-09-23T17:27:11.858Z,9.90
2018-09-23T17:29:40.264Z,9.90
2018-09-23T17:32:08.757Z,9.90
2018-09-23T17:34:37.390Z,9.90
2018-09-23T17:37:05.810Z,9.90
2018-09-23T17:39:34.227Z,9.90
2018-09-23T17:42:02.687Z,9.90
2018-09-23T17:44:31.242Z,9.90
2018-09-23T17:46:59.699Z,9.80
2018-09-23T17:49:28.167Z,9.90
2018-09-23T17:51:56.658Z,9.80
2018-09-23T17:54:25.097Z,9.80
2018-09-23T17:56:53.634Z,9.80
2018-09-23T17:59:22.108Z,9.90
2018-09-23T18:01:50.621Z,9.80
2018-09-23T18:04:19.144Z,9.80
2018-09-23T18:06:47.624Z,9.80
2018-09-23T18:09:16.104Z,9.80
2018-09-23T18:11:44.588Z,9.80
2018-09-23T18:14:13.068Z,9.80
2018-09-23T18:16:41.546Z,9.80
2018-09-23T18:19:10.092Z,9.80
2018-09-23T18:21:38.640Z,9.80
2018-09-23T18:24:07.369Z,9.80
2018-09-23T18:26:35.879Z,9.80
2018-09-23T18:29:04.386Z,9.70
2018-09-23T18:31:32.822Z,9.70
2018-09-23T18:34:01.419Z,9.70
2018-09-23T18:36:30.053Z,9.70
2018-09-23T18:38:59.183Z,9.70
2018-09-23T18:41:27.856Z,9.80
2018-09-23T18:43:56.634Z,9.80
2018-09-23T18:46:25.223Z,9.80
2018-09-23T18:48:53.745Z,9.70
2018-09-23T18:51:22.216Z,9.70
2018-09-23T18:53:56.655Z,9.70
2018-09-23T18:56:25.106Z,9.70
2018-09-23T18:58:53.635Z,9.70
2018-09-23T19:01:22.097Z,9.70
2018-09-23T19:03:50.592Z,9.70
2018-09-23T19:06:19.247Z,9.80
2018-09-23T19:08:47.719Z,9.80
2018-09-23T19:11:16.222Z,9.70
2018-09-23T19:13:49.938Z,9.70
2018-09-23T19:16:23.846Z,9.70
2018-09-23T19:18:53.578Z,9.70
2018-09-23T19:21:22.111Z,9.80
2018-09-23T19:23:50.610Z,9.70
2018-09-23T19:26:19.075Z,9.70
2018-09-23T19:28:47.527Z,9.70
2018-09-23T19:31:16.035Z,9.60
2018-09-23T19:33:44.516Z,9.60
2018-09-23T19:36:13.001Z,9.60
2018-09-23T19:38:41.487Z,9.60
2018-09-23T19:41:09.990Z,9.60
2018-09-23T19:43:38.450Z,9.60
2018-09-23T19:46:06.915Z,9.60
2018-09-23T19:48:35.419Z,9.60
2018-09-23T19:51:03.873Z,9.50
2018-09-23T19:53:32.359Z,9.50
2018-09-23T19:56:01.628Z,9.60
2018-09-23T19:58:30.094Z,9.50
2018-09-23T20:00:58.649Z,9.50
2018-09-23T20:03:27.147Z,9.50
2018-09-23T20:05:55.622Z,9.50
2018-09-23T20:08:24.094Z,9.50
2018-09-23T20:10:52.587Z,9.60
2018-09-23T20:13:21.082Z,9.60
2018-09-23T20:15:49.651Z,9.60
2018-09-23T20:18:18.236Z,9.60
2018-09-23T20:20:46.788Z,9.50
2018-09-23T20:23:15.258Z,9.50
2018-09-23T20:25:43.910Z,9.50
2018-09-23T20:28:12.639Z,9.60
2018-09-23T20:30:41.266Z,9.50
2018-09-23T20:33:09.746Z,9.60
2018-09-23T20:35:38.566Z,9.60
2018-09-23T20:38:07.022Z,9.60
2018-09-23T20:40:35.554Z,9.60
2018-09-23T20:43:04.107Z,9.60
2018-09-23T20:45:32.594Z,9.50
2018-09-23T20:48:01.070Z,9.50
2018-09-23T20:50:29.563Z,9.50
2018-09-23T20:52:58.128Z,9.50
2018-09-23T20:55:26.639Z,9.40
2018-09-23T20:57:55.099Z,9.40
2018-09-23T21:00:23.715Z,9.40
2018-09-23T21:02:52.176Z,9.40
2018-09-23T21:05:21.159Z,9.40
2018-09-23T21:07:49.754Z,9.30
2018-09-23T21:10:18.384Z,9.20
2018-09-23T21:12:47.069Z,9.20
2018-09-23T21:15:15.600Z,9.20
2018-09-23T21:17:44.262Z,9.20
2018-09-23T21:20:12.783Z,9.20
2018-09-23T21:22:41.274Z,9.20
2018-09-23T21:25:09.781Z,9.20
2018-09-23T21:27:38.260Z,9.10
2018-09-23T21:30:06.786Z,9.00
2018-09-23T21:32:35.248Z,9.00
2018-09-23T21:35:03.758Z,8.90
2018-09-23T21:37:32.227Z,8.90
2018-09-23T21:40:00.679Z,8.90
2018-09-23T21:42:29.188Z,8.90
2018-09-23T21:44:57.668Z,8.90
2018-09-23T21:47:26.155Z,8.90
2018-09-23T21:49:54.630Z,8.90
2018-09-23T21:52:23.103Z,8.80
2018-09-23T21:54:52.463Z,8.80
2018-09-23T21:57:20.959Z,8.80
2018-09-23T21:59:49.430Z,8.70
2018-09-23T22:02:17.961Z,8.80
2018-09-23T22:04:46.451Z,8.70
2018-09-23T22:07:14.895Z,8.70
2018-09-23T22:09:43.442Z,8.80
2018-09-23T22:12:11.889Z,8.80
2018-09-23T22:14:40.353Z,8.80
2018-09-23T22:17:08.895Z,8.80
2018-09-23T22:19:37.366Z,8.80
2018-09-23T22:22:06.168Z,8.70
2018-09-23T22:24:34.910Z,8.70
2018-09-23T22:27:03.394Z,8.70
2018-09-23T22:29:31.874Z,8.70
2018-09-23T22:32:00.408Z,8.70
2018-09-23T22:34:28.890Z,8.70
2018-09-23T22:36:57.398Z,8.70
2018-09-23T22:39:25.871Z,8.70
2018-09-23T22:41:54.602Z,8.70
2018-09-23T22:44:23.068Z,8.70
2018-09-23T22:46:51.550Z,8.70
2018-09-23T22:49:20.073Z,8.70
2018-09-23T22:51:48.534Z,8.70
2018-09-23T22:54:16.983Z,8.70
2018-09-23T22:56:45.451Z,8.60
2018-09-23T22:59:13.903Z,8.60
2018-09-23T23:01:42.408Z,8.70
2018-09-23T23:04:10.879Z,8.70
2018-09-23T23:06:39.372Z,8.60
2018-09-23T23:09:09.162Z,8.60
2018-09-23T23:11:37.662Z,8.60
2018-09-23T23:14:06.208Z,8.60
2018-09-23T23:16:34.689Z,8.60
2018-09-23T23:19:03.131Z,8.50
2018-09-23T23:21:31.606Z,8.50
2018-09-23T23:24:00.058Z,8.50
2018-09-23T23:26:28.525Z,8.60
2018-09-23T23:28:56.996Z,8.50
2018-09-23T23:31:25.474Z,8.50
2018-09-23T23:33:53.928Z,8.60
2018-09-23T23:36:22.409Z,8.60
2018-09-23T23:39:21.392Z,8.50
2018-09-23T23:41:49.874Z,8.50
2018-09-23T23:44:18.326Z,8.50
2018-09-23T23:46:48.183Z,8.40
2018-09-23T23:49:16.619Z,8.40
2018-09-23T23:51:45.083Z,8.40
2018-09-23T23:54:13.547Z,8.40
2018-09-23T23:56:42.011Z,8.40
2018-09-23T23:59:10.441Z,8.40
